Time;durP1;ratioP1;P1;durP2;ratioP2;P2;SDS_P1;SDS_P2;PMS_P1;PMS_P2;Temp;Humidity;BMP_temperature;BMP_pressure;BME280_temperature;BME280_humidity;BME280_pressure;Samples;Min_cycle;Max_cycle;Signal;HPM_P1;HPM_P2
2022/11/11 00:00:01;;;;;;;10.23;4.47;;;6.70;84.30;;;;;;5014834;28;20033;-74
2022/11/11 00:02:26;;;;;;;6.03;3.28;;;6.60;84.90;;;;;;5014631;28;20030;-76
2022/11/11 00:04:52;;;;;;;6.82;3.08;;;6.50;85.20;;;;;;5014369;28;20050;-75
2022/11/11 00:07:18;;;;;;;7.57;3.45;;;6.60;85.40;;;;;;5014587;28;20026;-76
2022/11/11 00:09:43;;;;;;;8.57;2.72;;;6.60;85.60;;;;;;4996970;28;20022;-75
2022/11/11 00:12:09;;;;;;;5.20;2.80;;;6.70;85.70;;;;;;5014572;28;20388;-76
2022/11/11 00:14:34;;;;;;;7.97;2.92;;;6.80;85.60;;;;;;5015899;28;20022;-74
2022/11/11 00:25:16;;;;;;;3.17;2.00;;;6.90;84.70;;;;;;5014134;28;20052;-75
2022/11/11 00:27:41;;;;;;;8.80;3.05;;;7.00;84.50;;;;;;5014214;28;20022;-75
2022/11/11 00:30:07;;;;;;;6.70;3.05;;;7.00;83.90;;;;;;5014172;28;20112;-75
2022/11/11 00:32:33;;;;;;;6.95;2.72;;;7.10;84.00;;;;;;4996163;28;20084;-75
2022/11/11 00:37:47;;;;;;;8.95;2.80;;;7.10;82.40;;;;;;5014101;28;20438;-76
2022/11/11 00:40:13;;;;;;;6.43;3.05;;;7.00;81.80;;;;;;5014047;28;20037;-75
2022/11/11 00:42:39;;;;;;;6.05;3.47;;;6.80;82.00;;;;;;5013576;28;20022;-75
2022/11/11 00:45:05;;;;;;;5.32;2.97;;;6.70;82.30;;;;;;5013790;28;20079;-75
2022/11/11 00:53:03;;;;;;;7.13;2.40;;;6.80;82.80;;;;;;5013774;28;20080;-75
2022/11/11 00:55:29;;;;;;;6.78;2.90;;;6.80;82.60;;;;;;5013663;28;20038;-75
2022/11/11 00:57:54;;;;;;;2.72;2.15;;;6.90;82.50;;;;;;5013676;28;20033;-75
2022/11/11 01:00:20;;;;;;;4.70;2.10;;;7.00;82.30;;;;;;5013512;28;20029;-75
2022/11/11 01:02:45;;;;;;;5.10;2.67;;;7.10;82.10;;;;;;4995940;28;20029;-75
2022/11/11 01:05:11;;;;;;;5.65;2.38;;;7.10;81.50;;;;;;5014456;28;20098;-76
2022/11/11 01:07:36;;;;;;;6.88;2.33;;;7.00;80.90;;;;;;4995834;28;20120;-78
2022/11/11 01:10:03;;;;;;;4.38;2.15;;;6.90;81.00;;;;;;4996897;28;20018;-76
2022/11/11 01:12:28;;;;;;;4.07;2.17;;;6.80;81.10;;;;;;5015740;28;20036;-75
2022/11/11 01:14:54;;;;;;;3.75;2.22;;;6.60;80.90;;;;;;5037279;28;20021;-75
2022/11/11 01:17:19;;;;;;;4.00;2.38;;;6.50;81.70;;;;;;5034391;28;20049;-75
2022/11/11 01:19:45;;;;;;;3.92;2.15;;;6.50;82.20;;;;;;5033802;28;20033;-76
2022/11/11 01:22:10;;;;;;;3.60;1.95;;;6.50;82.40;;;;;;5035139;28;20029;-76
2022/11/11 01:24:37;;;;;;;4.43;2.22;;;6.50;82.40;;;;;;5016846;28;20099;-76
2022/11/11 01:27:03;;;;;;;2.15;1.73;;;6.60;82.00;;;;;;4995566;28;20475;-76
2022/11/11 01:29:28;;;;;;;3.83;2.03;;;6.60;81.50;;;;;;4995650;28;20063;-76
2022/11/11 01:31:54;;;;;;;5.72;2.60;;;6.60;80.80;;;;;;4995550;28;20022;-76
2022/11/11 01:34:19;;;;;;;4.80;2.03;;;6.60;80.40;;;;;;5013109;28;20029;-76
2022/11/11 01:36:45;;;;;;;3.10;1.92;;;6.70;80.20;;;;;;5013028;28;20034;-76
2022/11/11 01:39:11;;;;;;;3.97;2.08;;;6.70;79.90;;;;;;5013016;28;20582;-77
2022/11/11 01:41:37;;;;;;;4.97;2.03;;;6.70;79.50;;;;;;4995576;28;20029;-78
2022/11/11 01:44:11;;;;;;;4.40;1.60;;;6.60;79.30;;;;;;5013253;28;20467;-76
2022/11/11 01:46:52;;;;;;;2.47;1.30;;;6.60;79.60;;;;;;5013231;28;20025;-76
2022/11/11 01:49:17;;;;;;;2.67;1.70;;;6.60;79.60;;;;;;5013102;28;20037;-77
2022/11/11 01:51:55;;;;;;;5.47;1.70;;;6.60;79.80;;;;;;4995434;28;20379;-76
2022/11/11 01:54:37;;;;;;;4.80;1.95;;;6.60;79.90;;;;;;5012799;28;20092;-75
2022/11/11 01:57:22;;;;;;;2.85;1.95;;;6.60;79.80;;;;;;5013026;28;20030;-78
2022/11/11 01:59:51;;;;;;;1.88;1.20;;;6.60;79.60;;;;;;5002791;28;20486;-76
2022/11/11 02:02:26;;;;;;;2.55;1.40;;;6.50;79.10;;;;;;5012834;28;20030;-76
2022/11/11 02:07:37;;;;;;;8.05;1.90;;;6.40;78.70;;;;;;5012980;28;20029;-77
2022/11/11 02:10:07;;;;;;;4.72;1.83;;;6.40;79.00;;;;;;5013026;28;20026;-75
2022/11/11 02:15:16;;;;;;;2.75;1.92;;;6.40;79.50;;;;;;5012853;28;20442;-75
2022/11/11 02:17:42;;;;;;;4.43;1.77;;;6.30;79.50;;;;;;4995264;28;20034;-75
2022/11/11 02:20:10;;;;;;;4.18;1.95;;;6.40;79.40;;;;;;5015927;28;20053;-75
2022/11/11 02:22:55;;;;;;;6.22;2.20;;;6.40;79.00;;;;;;5016647;28;20018;-75
2022/11/11 02:25:24;;;;;;;5.60;2.08;;;6.40;78.70;;;;;;5016144;28;20068;-75
2022/11/11 02:27:52;;;;;;;3.53;1.70;;;6.40;78.70;;;;;;5016442;28;20486;-76
2022/11/11 02:30:19;;;;;;;2.38;1.70;;;6.30;78.50;;;;;;4998686;28;20056;-75
2022/11/11 02:32:49;;;;;;;4.93;1.88;;;6.30;78.40;;;;;;5016364;28;20018;-75
2022/11/11 02:35:18;;;;;;;4.70;2.40;;;6.40;78.50;;;;;;5017139;28;20038;-75
2022/11/11 02:37:50;;;;;;;5.00;2.13;;;6.30;79.10;;;;;;5021041;28;20025;-75
2022/11/11 02:40:29;;;;;;;3.67;2.10;;;6.20;79.50;;;;;;5016166;28;20030;-75
2022/11/11 02:42:55;;;;;;;4.88;2.20;;;6.20;79.60;;;;;;5016381;28;20030;-75
2022/11/11 02:45:20;;;;;;;5.45;2.08;;;6.20;80.30;;;;;;5015928;28;20355;-75
2022/11/11 02:47:46;;;;;;;6.38;2.45;;;6.20;81.00;;;;;;4997970;28;20018;-76
2022/11/11 02:50:12;;;;;;;5.35;2.47;;;6.10;81.90;;;;;;4998375;28;20026;-74
2022/11/11 02:52:37;;;;;;;4.18;2.20;;;6.10;82.50;;;;;;5015830;28;20030;-76
2022/11/11 02:55:03;;;;;;;5.95;2.58;;;6.10;82.50;;;;;;5015994;28;20479;-77
2022/11/11 02:57:29;;;;;;;9.00;3.08;;;6.10;82.20;;;;;;5015876;28;20030;-76
2022/11/11 02:59:57;;;;;;;5.00;2.47;;;6.10;82.20;;;;;;5016030;28;20037;-75
2022/11/11 03:02:26;;;;;;;6.10;2.90;;;6.10;82.90;;;;;;5015710;28;20097;-76
2022/11/11 03:04:56;;;;;;;6.72;2.85;;;6.00;84.00;;;;;;5015739;28;20025;-76
2022/11/11 03:07:22;;;;;;;5.97;2.70;;;5.90;84.50;;;;;;5016379;28;20033;-76
2022/11/11 03:09:48;;;;;;;6.75;2.72;;;6.00;84.50;;;;;;5015731;28;20026;-76
2022/11/11 03:12:14;;;;;;;5.78;2.63;;;6.00;85.00;;;;;;5015640;28;20557;-77
2022/11/11 03:14:40;;;;;;;7.00;2.50;;;6.00;85.10;;;;;;5015480;28;20105;-76
2022/11/11 03:19:50;;;;;;;6.63;2.30;;;6.20;84.30;;;;;;5015855;28;20383;-76
2022/11/11 03:22:15;;;;;;;6.38;2.13;;;6.10;83.20;;;;;;5015532;28;20034;-76
2022/11/11 03:27:25;;;;;;;3.42;2.10;;;6.00;80.40;;;;;;5015541;28;20025;-75
2022/11/11 03:29:50;;;;;;;4.95;2.15;;;6.00;80.70;;;;;;5014361;28;20022;-76
2022/11/11 03:32:16;;;;;;;4.45;2.40;;;6.00;80.90;;;;;;4997624;28;20113;-75
2022/11/11 03:34:41;;;;;;;6.22;2.80;;;5.90;80.80;;;;;;5015039;28;20061;-76
2022/11/11 03:39:53;;;;;;;7.10;3.50;;;6.00;80.10;;;;;;5015389;28;20107;-73
2022/11/11 03:42:19;;;;;;;4.05;2.55;;;5.90;79.30;;;;;;5014828;28;20478;-74
2022/11/11 03:44:45;;;;;;;4.20;2.60;;;5.90;78.90;;;;;;5015062;28;20534;-76
2022/11/11 03:47:10;;;;;;;6.78;3.20;;;5.80;78.70;;;;;;5015012;28;20033;-74
2022/11/11 03:49:36;;;;;;;7.40;3.58;;;5.90;78.60;;;;;;5014936;28;20030;-74
2022/11/11 03:52:02;;;;;;;8.48;2.90;;;5.80;78.40;;;;;;5014843;28;20022;-78
2022/11/11 03:54:27;;;;;;;5.55;3.30;;;5.80;78.50;;;;;;5014676;28;20026;-75
2022/11/11 03:57:29;;;;;;;4.65;2.85;;;5.80;78.50;;;;;;5014877;28;20498;-75
2022/11/11 03:59:39;;;;;;;4.55;3.08;;;5.70;78.60;;;;;;5014729;28;20026;-75
2022/11/11 04:10:21;;;;;;;5.88;2.50;;;5.60;78.90;;;;;;4996130;28;20037;-75
2022/11/11 04:18:15;;;;;;;7.25;2.67;;;5.50;81.50;;;;;;5037771;28;20028;-76
2022/11/11 04:23:26;;;;;;;6.63;2.35;;;5.50;83.10;;;;;;5014318;28;20052;-78
2022/11/11 04:25:52;;;;;;;4.13;2.22;;;5.50;82.80;;;;;;5014075;28;20074;-75
2022/11/11 04:31:02;;;;;;;6.13;2.05;;;5.50;84.10;;;;;;5014189;28;20549;-75
2022/11/11 04:33:28;;;;;;;3.50;2.03;;;5.50;83.70;;;;;;5014096;28;20030;-75
2022/11/11 04:35:53;;;;;;;3.80;2.30;;;5.60;83.60;;;;;;5013705;28;20030;-75
2022/11/11 04:41:03;;;;;;;5.25;3.55;;;5.70;84.10;;;;;;5013721;28;20445;-75
2022/11/11 04:45:26;;;;;;;8.93;3.22;;;5.70;84.60;;;;;;5013832;28;20022;-74
2022/11/11 04:46:17;;;;;;;5.30;2.58;;;5.80;85.10;;;;;;5013556;28;20026;-76
2022/11/11 04:48:43;;;;;;;6.93;2.60;;;5.80;85.40;;;;;;4996782;28;20018;-76
2022/11/11 04:51:08;;;;;;;6.05;2.08;;;5.80;85.20;;;;;;5013782;28;20478;-75
2022/11/11 04:53:34;;;;;;;7.65;2.53;;;5.90;85.00;;;;;;5013492;28;20097;-76
2022/11/11 04:58:45;;;;;;;6.63;2.75;;;5.80;84.80;;;;;;5018480;28;20032;-75
2022/11/11 05:03:14;;;;;;;6.93;2.45;;;5.80;84.70;;;;;;5013836;28;20479;-76
2022/11/11 05:03:56;;;;;;;4.30;2.70;;;5.80;84.50;;;;;;5013154;28;20076;-76
2022/11/11 05:09:06;;;;;;;19.67;6.97;;;5.80;84.00;;;;;;5013500;28;20037;-75
2022/11/11 05:11:33;;;;;;;16.73;7.75;;;5.90;83.60;;;;;;5013169;28;20390;-76
2022/11/11 05:22:35;;;;;;;9.73;4.07;;;5.80;82.70;;;;;;5013142;28;20121;-78
2022/11/11 05:27:45;;;;;;;6.95;3.40;;;5.80;83.50;;;;;;5013411;28;20036;-76
2022/11/11 05:30:13;;;;;;;7.30;3.45;;;5.70;83.70;;;;;;5013148;28;20026;-76
2022/11/11 05:32:39;;;;;;;6.28;3.00;;;5.70;83.90;;;;;;5013243;28;20053;-76
2022/11/11 05:35:06;;;;;;;5.43;2.97;;;5.70;84.30;;;;;;5013066;28;20498;-77
2022/11/11 05:37:32;;;;;;;6.95;3.22;;;5.70;84.60;;;;;;5012999;28;20034;-76
2022/11/11 05:39:57;;;;;;;7.95;3.80;;;5.60;84.90;;;;;;5012979;28;20398;-76
2022/11/11 05:42:23;;;;;;;12.32;5.03;;;5.60;84.80;;;;;;5013136;28;20076;-78
2022/11/11 05:44:49;;;;;;;11.52;5.50;;;5.60;84.10;;;;;;5012990;28;20032;-77
2022/11/11 05:47:15;;;;;;;12.82;6.53;;;5.60;84.00;;;;;;5013088;28;20025;-76
2022/11/11 05:49:40;;;;;;;9.75;5.32;;;5.60;84.20;;;;;;5012755;28;20372;-77
2022/11/11 05:52:08;;;;;;;10.55;4.93;;;5.60;85.50;;;;;;5013167;28;20088;-77
2022/11/11 05:54:34;;;;;;;10.43;4.43;;;5.60;84.90;;;;;;5015569;28;20022;-77
2022/11/11 05:57:00;;;;;;;11.80;5.63;;;5.60;84.90;;;;;;5016962;28;20026;-77
2022/11/11 05:59:25;;;;;;;10.57;5.20;;;5.60;84.80;;;;;;5017049;28;20029;-78
2022/11/11 06:01:51;;;;;;;8.70;3.60;;;5.70;84.40;;;;;;4999244;28;20554;-75
2022/11/11 06:04:17;;;;;;;4.43;2.58;;;5.70;83.70;;;;;;5016819;28;20028;-75
2022/11/11 06:06:42;;;;;;;6.82;2.60;;;5.70;83.40;;;;;;5016460;28;20057;-76
2022/11/11 06:09:08;;;;;;;3.90;2.60;;;5.70;83.10;;;;;;5016603;28;20057;-77
2022/11/11 06:11:34;;;;;;;5.90;2.60;;;5.70;82.90;;;;;;5016566;28;20025;-76
2022/11/11 06:13:59;;;;;;;5.82;2.55;;;5.70;82.60;;;;;;4998736;28;20138;-77
2022/11/11 06:16:25;;;;;;;3.65;2.47;;;5.70;81.90;;;;;;5016184;28;20034;-78
2022/11/11 06:18:51;;;;;;;4.47;2.88;;;5.70;81.60;;;;;;5016495;28;20014;-78
2022/11/11 06:21:17;;;;;;;7.78;2.88;;;5.70;81.50;;;;;;5016358;28;20069;-77
2022/11/11 06:23:43;;;;;;;6.22;2.63;;;5.70;81.40;;;;;;5016022;28;20057;-77
2022/11/11 06:26:13;;;;;;;9.13;3.55;;;5.70;81.20;;;;;;4997688;28;20134;-77
2022/11/11 06:28:50;;;;;;;6.50;4.07;;;5.70;81.10;;;;;;5015098;28;20426;-76
2022/11/11 06:31:24;;;;;;;8.95;4.18;;;5.70;81.30;;;;;;5015328;28;20040;-76
2022/11/11 06:33:50;;;;;;;5.88;3.58;;;5.70;81.80;;;;;;5015365;28;20022;-77
2022/11/11 06:36:19;;;;;;;9.02;3.83;;;5.70;81.90;;;;;;5015669;28;20475;-77
2022/11/11 06:38:45;;;;;;;6.40;3.95;;;5.70;81.90;;;;;;5015962;28;20018;-77
2022/11/11 06:41:12;;;;;;;11.40;4.88;;;5.70;81.70;;;;;;5015731;28;20033;-76
2022/11/11 06:43:41;;;;;;;9.05;4.40;;;5.80;81.60;;;;;;5015640;28;20058;-77
2022/11/11 06:46:19;;;;;;;7.85;4.82;;;5.80;81.50;;;;;;5015844;28;20491;-76
2022/11/11 06:48:45;;;;;;;11.63;6.53;;;5.80;81.50;;;;;;5016002;28;20471;-76
2022/11/11 06:51:13;;;;;;;11.05;5.97;;;5.90;81.70;;;;;;4998103;28;20033;-76
2022/11/11 06:53:39;;;;;;;8.45;4.93;;;5.90;81.90;;;;;;5015716;28;20470;-76
2022/11/11 06:56:06;;;;;;;8.20;3.53;;;5.90;81.90;;;;;;5015702;28;20049;-76
2022/11/11 06:58:32;;;;;;;8.23;5.22;;;5.90;82.50;;;;;;5015814;28;20297;-77
2022/11/11 07:00:57;;;;;;;6.13;3.65;;;6.00;83.00;;;;;;5015527;28;20033;-77
2022/11/11 07:03:23;;;;;;;9.18;3.47;;;6.10;83.10;;;;;;5015368;28;20026;-76
2022/11/11 07:05:49;;;;;;;6.80;3.28;;;6.10;83.00;;;;;;5015221;28;20037;-76
2022/11/11 07:08:16;;;;;;;6.18;3.80;;;6.20;83.10;;;;;;5015307;28;20030;-76
2022/11/11 07:10:47;;;;;;;8.85;4.05;;;6.20;82.90;;;;;;5015249;28;20053;-77
2022/11/11 07:13:14;;;;;;;8.95;3.50;;;6.30;83.00;;;;;;5015300;28;20505;-80
2022/11/11 07:15:40;;;;;;;11.05;4.05;;;6.30;82.60;;;;;;5015106;28;20099;-76
2022/11/11 07:18:06;;;;;;;10.07;4.25;;;6.30;82.40;;;;;;5015810;28;20163;-78
2022/11/11 07:20:31;;;;;;;7.60;3.88;;;6.40;82.30;;;;;;5027372;28;20030;-76
2022/11/11 07:22:57;;;;;;;6.78;3.20;;;6.50;82.10;;;;;;5022469;28;20026;-78
2022/11/11 07:25:23;;;;;;;6.97;3.03;;;6.60;81.70;;;;;;4997167;28;20416;-78
2022/11/11 07:27:48;;;;;;;8.13;3.00;;;6.70;81.60;;;;;;5015081;28;20022;-77
2022/11/11 07:30:14;;;;;;;15.90;6.63;;;6.80;81.40;;;;;;5014814;28;20414;-78
2022/11/11 07:32:50;;;;;;;15.50;7.97;;;6.90;80.50;;;;;;5014793;28;20383;-78
2022/11/11 07:35:17;;;;;;;16.17;8.73;;;7.00;79.30;;;;;;4996831;28;20021;-78
2022/11/11 07:37:43;;;;;;;17.60;10.10;;;7.00;78.90;;;;;;5014746;28;20030;-78
2022/11/11 07:40:11;;;;;;;21.25;10.10;;;7.10;78.70;;;;;;5014732;28;20022;-77
2022/11/11 07:42:38;;;;;;;21.80;10.52;;;7.10;78.40;;;;;;5014411;28;20443;-77
2022/11/11 07:45:05;;;;;;;14.00;9.15;;;7.20;78.00;;;;;;5014391;28;20441;-78
2022/11/11 07:47:33;;;;;;;15.98;8.65;;;7.30;77.80;;;;;;5014328;28;20065;-77
2022/11/11 07:49:59;;;;;;;18.52;9.77;;;7.40;77.70;;;;;;5015448;28;20028;-77
2022/11/11 07:52:24;;;;;;;18.83;10.32;;;7.50;77.30;;;;;;5014457;28;20026;-78
2022/11/11 07:54:50;;;;;;;19.77;10.60;;;7.50;76.80;;;;;;5014099;28;20038;-77
2022/11/11 07:57:15;;;;;;;13.50;7.50;;;7.50;76.90;;;;;;5013987;28;20102;-76
2022/11/11 07:59:42;;;;;;;20.17;6.88;;;7.60;77.30;;;;;;5013860;28;20180;-76
2022/11/11 08:02:11;;;;;;;12.20;7.80;;;7.80;77.60;;;;;;5013868;28;20057;-78
2022/11/11 08:04:37;;;;;;;18.33;8.35;;;8.00;77.30;;;;;;5013716;28;20030;-75
2022/11/11 08:07:03;;;;;;;22.20;8.48;;;8.10;76.80;;;;;;5013603;28;20101;-77
2022/11/11 08:09:29;;;;;;;14.70;7.63;;;8.40;76.20;;;;;;5014281;28;20474;-77
2022/11/11 08:14:38;;;;;;;13.95;7.20;;;8.70;75.30;;;;;;5013877;28;20402;-77
2022/11/11 08:17:04;;;;;;;11.18;6.38;;;8.90;74.50;;;;;;5013014;28;20041;-78
2022/11/11 08:19:30;;;;;;;12.48;6.80;;;9.00;74.00;;;;;;5014029;28;20026;-76
2022/11/11 08:21:55;;;;;;;17.73;6.88;;;9.10;73.60;;;;;;4995987;28;20037;-77
2022/11/11 08:24:21;;;;;;;17.92;6.97;;;9.20;73.00;;;;;;5013361;28;20060;-78
2022/11/11 08:26:48;;;;;;;11.52;6.47;;;9.30;72.70;;;;;;5013688;28;20466;-77
2022/11/11 08:29:13;;;;;;;13.90;8.30;;;9.40;72.10;;;;;;5013399;28;20498;-77
2022/11/11 08:31:39;;;;;;;18.45;8.48;;;9.50;71.80;;;;;;5013471;28;20026;-78
2022/11/11 08:34:05;;;;;;;26.75;7.97;;;9.40;71.80;;;;;;4995660;28;20431;-80
2022/11/11 08:36:30;;;;;;;14.48;6.93;;;9.80;85.90;;;;;;5012852;28;20078;-79
2022/11/11 08:38:56;;;;;;;17.00;8.15;;;10.10;83.70;;;;;;5013206;28;20053;-81
2022/11/11 08:41:22;;;;;;;16.17;7.72;;;10.70;79.10;;;;;;5012970;28;20028;-79
2022/11/11 08:43:51;;;;;;;15.65;6.88;;;11.20;74.80;;;;;;5013433;28;20073;-81
2022/11/11 08:46:17;;;;;;;14.13;6.53;;;11.60;71.80;;;;;;5013318;28;20105;-80
2022/11/11 08:48:42;;;;;;;14.20;5.75;;;11.80;70.10;;;;;;5013828;28;20493;-83
2022/11/11 08:51:08;;;;;;;11.50;5.43;;;12.00;68.00;;;;;;5013365;28;20103;-81
2022/11/11 08:53:33;;;;;;;16.65;5.10;;;12.30;66.90;;;;;;5013208;28;20030;-78
2022/11/11 08:56:01;;;;;;;13.15;5.32;;;12.50;65.60;;;;;;5012154;28;20076;-80
2022/11/11 08:58:27;;;;;;;9.77;5.00;;;12.70;65.10;;;;;;5013415;28;20068;-80
2022/11/11 09:00:52;;;;;;;8.07;4.88;;;12.80;64.30;;;;;;5013327;28;20025;-80
2022/11/11 09:03:18;;;;;;;12.90;4.68;;;13.00;63.10;;;;;;5016862;28;20026;-81
2022/11/11 09:05:46;;;;;;;20.33;7.55;;;13.10;62.70;;;;;;5021691;28;20079;-80
2022/11/11 09:08:12;;;;;;;16.73;7.35;;;13.40;62.60;;;;;;5013858;28;20463;-80
2022/11/11 09:10:37;;;;;;;13.45;6.47;;;13.60;61.20;;;;;;5013342;28;20041;-81
2022/11/11 09:13:03;;;;;;;18.05;6.07;;;13.80;60.30;;;;;;5012893;28;20121;-80
2022/11/11 09:15:30;;;;;;;11.43;5.28;;;14.00;59.40;;;;;;5012569;28;20482;-77
2022/11/11 09:17:55;;;;;;;12.18;5.35;;;14.00;57.90;;;;;;5012933;28;20064;-78
2022/11/11 09:20:22;;;;;;;14.77;4.18;;;13.90;57.40;;;;;;5012934;28;20029;-78
2022/11/11 09:22:48;;;;;;;10.90;4.13;;;13.60;58.30;;;;;;5012841;28;20137;-79
2022/11/11 09:25:15;;;;;;;13.88;3.80;;;13.50;59.30;;;;;;5038299;28;20040;-79
2022/11/11 09:27:41;;;;;;;11.55;4.38;;;13.40;60.40;;;;;;5052119;28;20040;-78
2022/11/11 09:30:08;;;;;;;10.63;4.40;;;13.50;60.90;;;;;;5052322;28;20053;-79
2022/11/11 09:32:33;;;;;;;6.85;3.45;;;13.60;60.80;;;;;;5052028;28;20091;-78
2022/11/11 09:34:59;;;;;;;6.05;3.72;;;13.80;60.50;;;;;;5052229;28;20033;-77
2022/11/11 09:37:26;;;;;;;9.43;3.90;;;14.00;59.90;;;;;;5051887;28;20036;-77
2022/11/11 09:39:51;;;;;;;8.07;3.92;;;14.30;59.30;;;;;;5051657;28;20096;-77
2022/11/11 09:42:23;;;;;;;8.80;4.05;;;14.50;58.70;;;;;;5052206;28;20109;-78
2022/11/11 09:45:07;;;;;;;8.75;4.28;;;14.60;58.50;;;;;;5052207;28;20100;-78
2022/11/11 09:47:38;;;;;;;10.60;5.47;;;14.60;57.60;;;;;;5034613;28;20115;-76
2022/11/11 09:50:09;;;;;;;8.93;4.82;;;14.60;57.60;;;;;;5052320;28;20024;-79
2022/11/11 09:52:44;;;;;;;10.23;3.80;;;14.60;57.90;;;;;;5052265;28;20111;-77
2022/11/11 09:55:24;;;;;;;15.00;3.67;;;14.40;58.20;;;;;;5052028;28;20108;-77
2022/11/11 09:57:59;;;;;;;7.18;3.25;;;14.40;58.40;;;;;;5050670;28;20035;-77
2022/11/11 10:00:29;;;;;;;11.00;4.03;;;14.70;58.30;;;;;;5052301;28;20061;-77
2022/11/11 10:03:00;;;;;;;7.75;3.90;;;14.90;58.70;;;;;;5052169;28;20120;-77
2022/11/11 10:05:44;;;;;;;13.90;4.47;;;15.10;58.20;;;;;;5052150;28;20013;-77
2022/11/11 10:08:32;;;;;;;7.75;4.57;;;15.30;57.30;;;;;;5052070;28;20108;-77
2022/11/11 10:11:00;;;;;;;8.13;4.45;;;15.40;56.60;;;;;;5051615;28;20363;-77
2022/11/11 10:13:34;;;;;;;10.60;3.67;;;15.50;56.80;;;;;;5037858;28;20025;-78
2022/11/11 10:16:26;;;;;;;10.32;3.55;;;15.70;56.70;;;;;;5031745;28;20470;-77
2022/11/11 10:19:19;;;;;;;7.03;2.92;;;16.00;55.70;;;;;;5032073;28;20107;-77
2022/11/11 10:21:54;;;;;;;5.00;2.40;;;16.00;53.60;;;;;;5031812;28;20030;-76
2022/11/11 10:24:41;;;;;;;6.75;2.63;;;15.90;54.90;;;;;;5031808;28;20151;-77
2022/11/11 10:27:16;;;;;;;3.47;1.83;;;16.20;54.90;;;;;;5051310;28;20021;-76
2022/11/11 10:29:46;;;;;;;5.05;2.28;;;16.40;54.30;;;;;;5051450;28;20043;-76
2022/11/11 10:32:27;;;;;;;6.88;2.60;;;16.60;53.60;;;;;;5051608;28;20025;-76
2022/11/11 10:34:56;;;;;;;8.48;2.67;;;16.70;54.00;;;;;;5051608;28;20033;-77
2022/11/11 10:37:26;;;;;;;5.55;2.90;;;16.80;54.10;;;;;;5051657;28;20454;-79
2022/11/11 10:40:04;;;;;;;8.10;2.88;;;16.90;53.80;;;;;;5052950;28;20377;-80
2022/11/11 10:42:29;;;;;;;9.77;2.30;;;17.00;53.90;;;;;;5055237;28;20147;-80
2022/11/11 10:44:59;;;;;;;7.55;2.88;;;17.10;52.20;;;;;;5055463;28;20075;-78
2022/11/11 10:47:52;;;;;;;6.75;2.40;;;17.20;52.60;;;;;;5055242;28;20025;-77
2022/11/11 10:50:40;;;;;;;5.72;3.17;;;17.20;50.90;;;;;;5055296;28;20119;-78
2022/11/11 10:53:14;;;;;;;6.78;2.28;;;17.60;49.60;;;;;;5055187;28;20072;-77
2022/11/11 10:55:51;;;;;;;8.32;2.30;;;17.90;47.90;;;;;;5054961;28;20029;-77
2022/11/11 10:58:27;;;;;;;8.02;2.38;;;17.90;49.10;;;;;;5055218;28;20052;-77
2022/11/11 11:00:54;;;;;;;5.30;2.00;;;17.70;48.90;;;;;;5055122;28;20442;-79
2022/11/11 11:03:29;;;;;;;5.28;2.47;;;17.60;50.20;;;;;;5054706;28;20040;-78
2022/11/11 11:06:18;;;;;;;6.03;1.88;;;18.00;49.40;;;;;;5054917;28;20029;-81
2022/11/11 11:08:48;;;;;;;4.28;2.00;;;18.10;48.80;;;;;;5054658;28;20025;-76
2022/11/11 11:11:25;;;;;;;6.68;2.10;;;18.30;47.90;;;;;;5054708;28;20028;-76
2022/11/11 11:13:53;;;;;;;6.47;2.40;;;18.40;48.20;;;;;;5054134;28;20056;-77
2022/11/11 11:16:28;;;;;;;8.30;2.45;;;18.70;48.40;;;;;;5054107;28;20043;-77
2022/11/11 11:19:18;;;;;;;2.67;1.85;;;18.80;47.10;;;;;;5054095;28;20096;-78
2022/11/11 11:21:49;;;;;;;7.95;2.90;;;18.80;47.80;;;;;;5054529;28;20411;-81
2022/11/11 11:24:20;;;;;;;8.88;2.50;;;18.80;47.60;;;;;;5054241;28;20041;-78
2022/11/11 11:26:48;;;;;;;4.78;2.30;;;18.80;48.00;;;;;;5053917;28;20091;-78
2022/11/11 11:29:25;;;;;;;2.90;2.30;;;18.90;47.90;;;;;;5053904;28;20424;-78
2022/11/11 11:31:51;;;;;;;6.47;2.30;;;19.10;47.50;;;;;;5035806;28;20045;-76
2022/11/11 11:34:16;;;;;;;5.43;2.30;;;19.30;46.60;;;;;;5053864;28;20068;-76
2022/11/11 11:36:42;;;;;;;6.65;2.88;;;19.40;46.30;;;;;;5053960;28;20060;-76
2022/11/11 11:39:07;;;;;;;5.88;2.53;;;19.40;46.20;;;;;;5046003;28;20033;-77
2022/11/11 11:41:37;;;;;;;4.28;2.95;;;19.50;46.40;;;;;;5052845;28;20446;-76
2022/11/11 11:44:23;;;;;;;4.55;2.75;;;19.40;46.40;;;;;;5051768;28;20372;-79
2022/11/11 11:46:49;;;;;;;6.18;3.08;;;19.40;46.70;;;;;;5050823;28;20051;-77
2022/11/11 11:49:34;;;;;;;6.05;2.88;;;19.50;47.10;;;;;;5051873;28;20025;-77
2022/11/11 11:51:59;;;;;;;3.72;2.20;;;19.60;48.20;;;;;;5047231;28;20389;-78
2022/11/11 11:55:01;;;;;;;5.20;2.50;;;19.70;47.20;;;;;;5050825;28;20043;-77
2022/11/11 11:57:29;;;;;;;5.68;2.30;;;19.90;46.60;;;;;;5049335;28;20099;-79
2022/11/11 12:00:05;;;;;;;2.90;1.73;;;20.00;45.20;;;;;;5051590;28;20084;-77
2022/11/11 12:02:46;;;;;;;6.28;2.25;;;20.10;44.70;;;;;;5051288;28;20064;-77
2022/11/11 12:05:26;;;;;;;4.55;1.92;;;20.00;43.60;;;;;;5050309;28;20029;-76
2022/11/11 12:08:20;;;;;;;3.90;2.10;;;19.90;44.30;;;;;;5051592;28;20067;-76
2022/11/11 12:11:05;;;;;;;3.42;2.22;;;19.60;45.40;;;;;;5047922;28;20017;-77
2022/11/11 12:13:52;;;;;;;4.88;2.47;;;19.70;45.10;;;;;;5049720;28;20106;-82
2022/11/11 12:16:41;;;;;;;4.43;2.25;;;19.40;45.00;;;;;;5053360;28;20064;-84
2022/11/11 12:19:21;;;;;;;6.07;2.97;;;19.50;45.40;;;;;;5062144;28;20071;-82
2022/11/11 12:21:53;;;;;;;10.23;2.70;;;19.50;45.40;;;;;;5050428;28;20032;-84
2022/11/11 12:24:39;;;;;;;6.10;3.00;;;19.50;45.40;;;;;;5047555;28;20116;-88
2022/11/11 12:27:30;;;;;;;7.10;3.60;;;19.50;45.50;;;;;;5019833;28;20108;-86
2022/11/11 12:30:09;;;;;;;6.03;3.03;;;19.60;45.90;;;;;;5013530;28;20022;-83
2022/11/11 12:33:05;;;;;;;6.38;2.70;;;19.90;44.90;;;;;;5014716;28;20117;-88
2022/11/11 12:36:09;;;;;;;4.65;2.80;;;20.10;44.50;;;;;;5014174;28;20394;-81
2022/11/11 12:39:16;;;;;;;4.07;2.55;;;20.40;43.80;;;;;;5008166;28;20026;-84
2022/11/11 12:41:58;;;;;;;9.23;3.75;;;20.70;42.80;;;;;;4983413;28;20455;-83
2022/11/11 12:44:40;;;;;;;5.43;3.00;;;20.70;42.90;;;;;;5013641;28;20029;-84
2022/11/11 12:47:35;;;;;;;5.40;3.13;;;20.90;42.90;;;;;;5013599;28;20018;-85
2022/11/11 12:50:12;;;;;;;8.27;2.92;;;20.70;43.10;;;;;;5014677;28;20026;-87
2022/11/11 12:53:15;;;;;;;5.82;2.85;;;20.60;42.90;;;;;;4996914;28;20037;-85
2022/11/11 12:56:19;;;;;;;5.38;3.05;;;20.70;43.20;;;;;;5014079;28;20084;-82
2022/11/11 12:59:05;;;;;;;8.60;2.70;;;20.90;42.80;;;;;;5014291;28;20506;-85
2022/11/11 13:01:53;;;;;;;7.50;3.20;;;20.90;41.80;;;;;;5014090;28;20028;-84
2022/11/11 13:04:45;;;;;;;7.20;2.92;;;21.20;41.70;;;;;;5039460;28;20028;-82
2022/11/11 13:07:46;;;;;;;7.18;2.60;;;22.00;40.40;;;;;;5051105;28;20032;-87
2022/11/11 13:10:44;;;;;;;6.93;2.80;;;23.20;38.10;;;;;;5053207;28;20056;-83
2022/11/11 13:13:28;;;;;;;5.90;2.75;;;24.30;35.60;;;;;;5053721;28;20021;-85
2022/11/11 13:15:57;;;;;;;6.78;2.03;;;24.70;33.10;;;;;;5035462;28;20469;-83
2022/11/11 13:18:38;;;;;;;8.43;2.28;;;25.30;32.50;;;;;;5034932;28;20078;-81
2022/11/11 13:21:09;;;;;;;7.72;2.38;;;25.10;31.40;;;;;;5034448;28;20025;-87
2022/11/11 13:23:35;;;;;;;7.72;2.92;;;25.60;31.20;;;;;;5033765;28;20370;-87
2022/11/11 13:26:14;;;;;;;5.68;2.35;;;25.80;30.60;;;;;;5033387;28;20050;-85
2022/11/11 13:28:45;;;;;;;7.75;2.70;;;25.90;30.60;;;;;;5032837;28;20425;-81
2022/11/11 13:31:44;;;;;;;6.63;2.35;;;25.50;30.70;;;;;;5029665;28;20067;-82
2022/11/11 13:34:13;;;;;;;3.95;2.47;;;25.10;32.10;;;;;;5004135;28;20032;-82
2022/11/11 13:36:44;;;;;;;5.10;2.30;;;24.70;33.10;;;;;;5032134;28;20041;-83
2022/11/11 13:39:23;;;;;;;6.30;2.70;;;24.60;32.90;;;;;;5033508;28;20031;-79
2022/11/11 13:41:52;;;;;;;4.63;2.20;;;24.60;33.50;;;;;;5032541;28;20385;-87
2022/11/11 13:44:52;;;;;;;5.03;2.60;;;24.80;32.50;;;;;;5034099;28;20025;-83
2022/11/11 13:47:24;;;;;;;5.53;2.17;;;25.30;31.60;;;;;;5028808;28;20056;-81
2022/11/11 13:49:58;;;;;;;6.15;2.53;;;25.80;30.40;;;;;;5032959;28;20433;-85
2022/11/11 13:52:33;;;;;;;5.72;2.28;;;25.90;29.90;;;;;;5032750;28;20025;-81
2022/11/11 13:55:03;;;;;;;4.07;2.33;;;26.40;29.50;;;;;;5032507;28;20026;-83
2022/11/11 13:57:33;;;;;;;4.30;2.22;;;26.60;28.40;;;;;;5027363;28;20029;-83
2022/11/11 14:00:05;;;;;;;4.68;2.15;;;27.20;28.10;;;;;;5032519;28;20021;-81
2022/11/11 14:02:33;;;;;;;2.88;2.22;;;27.40;27.10;;;;;;5032379;28;20025;-82
2022/11/11 14:05:01;;;;;;;5.20;2.50;;;27.10;27.50;;;;;;5033462;28;20105;-82
2022/11/11 14:07:48;;;;;;;6.82;2.63;;;26.60;28.00;;;;;;5035135;28;20182;-83
2022/11/11 14:10:16;;;;;;;4.50;2.53;;;26.00;29.10;;;;;;5031317;28;20028;-81
2022/11/11 14:12:42;;;;;;;6.38;2.30;;;25.30;30.60;;;;;;5035361;28;20025;-81
2022/11/11 14:15:29;;;;;;;4.47;1.80;;;24.50;32.10;;;;;;5035712;28;20025;-87
2022/11/11 14:17:55;;;;;;;5.88;1.88;;;23.80;33.60;;;;;;5039738;28;20029;-79
2022/11/11 14:20:36;;;;;;;5.40;2.35;;;23.20;34.80;;;;;;5036338;28;20030;-81